sensor_id;sensor_type;location;lat;lon;timestamp;pressure;altitude;pressure_sealevel;temperature
64916;BMP280;51427;-27.442;153.014;2022-07-21T00:01:54;102318.81;;;20.31
64916;BMP280;51427;-27.442;153.014;2022-07-21T00:04:22;102295.72;;;19.77
64916;BMP280;51427;-27.442;153.014;2022-07-21T00:06:49;102271.28;;;19.88
64916;BMP280;51427;-27.442;153.014;2022-07-21T00:09:17;102273.66;;;20.25
64916;BMP280;51427;-27.442;153.014;2022-07-21T00:11:44;102261.00;;;20.40
64916;BMP280;51427;-27.442;153.014;2022-07-21T00:14:12;102240.03;;;20.50
64916;BMP280;51427;-27.442;153.014;2022-07-21T00:16:41;102215.09;;;20.97
64916;BMP280;51427;-27.442;153.014;2022-07-21T00:19:09;102216.53;;;20.03
64916;BMP280;51427;-27.442;153.014;2022-07-21T00:21:37;102207.34;;;20.63
64916;BMP280;51427;-27.442;153.014;2022-07-21T00:24:05;102225.66;;;20.32
64916;BMP280;51427;-27.442;153.014;2022-07-21T00:26:32;102239.69;;;20.65
64916;BMP280;51427;-27.442;153.014;2022-07-21T00:28:59;102207.56;;;20.28
64916;BMP280;51427;-27.442;153.014;2022-07-21T00:31:27;102179.44;;;20.39
64916;BMP280;51427;-27.442;153.014;2022-07-21T00:33:54;102194.19;;;20.52
64916;BMP280;51427;-27.442;153.014;2022-07-21T00:36:22;102244.94;;;19.88
64916;BMP280;51427;-27.442;153.014;2022-07-21T00:38:49;102261.22;;;20.37
64916;BMP280;51427;-27.442;153.014;2022-07-21T00:41:17;102254.00;;;20.18
64916;BMP280;51427;-27.442;153.014;2022-07-21T00:43:44;102225.53;;;20.23
64916;BMP280;51427;-27.442;153.014;2022-07-21T00:46:11;102228.06;;;19.56
64916;BMP280;51427;-27.442;153.014;2022-07-21T00:48:38;102227.97;;;19.57
64916;BMP280;51427;-27.442;153.014;2022-07-21T00:51:06;102245.19;;;18.42
64916;BMP280;51427;-27.442;153.014;2022-07-21T00:53:33;102250.06;;;17.85
64916;BMP280;51427;-27.442;153.014;2022-07-21T00:56:01;102221.84;;;18.75
64916;BMP280;51427;-27.442;153.014;2022-07-21T00:58:28;102231.66;;;19.08
64916;BMP280;51427;-27.442;153.014;2022-07-21T01:00:56;102226.19;;;19.69
64916;BMP280;51427;-27.442;153.014;2022-07-21T01:03:23;102209.81;;;19.99
64916;BMP280;51427;-27.442;153.014;2022-07-21T01:05:51;102194.72;;;19.90
64916;BMP280;51427;-27.442;153.014;2022-07-21T01:08:18;102211.25;;;19.69
64916;BMP280;51427;-27.442;153.014;2022-07-21T01:10:45;102186.81;;;20.01
64916;BMP280;51427;-27.442;153.014;2022-07-21T01:13:14;102190.06;;;19.71
64916;BMP280;51427;-27.442;153.014;2022-07-21T01:15:41;102196.44;;;20.24
64916;BMP280;51427;-27.442;153.014;2022-07-21T01:18:09;102186.41;;;19.84
64916;BMP280;51427;-27.442;153.014;2022-07-21T01:20:38;102161.50;;;20.11
64916;BMP280;51427;-27.442;153.014;2022-07-21T01:23:08;102127.25;;;20.11
64916;BMP280;51427;-27.442;153.014;2022-07-21T01:25:35;102115.03;;;20.10
64916;BMP280;51427;-27.442;153.014;2022-07-21T01:28:03;102112.84;;;20.70
64916;BMP280;51427;-27.442;153.014;2022-07-21T01:30:30;102130.31;;;20.82
64916;BMP280;51427;-27.442;153.014;2022-07-21T01:32:57;102167.81;;;20.85
64916;BMP280;51427;-27.442;153.014;2022-07-21T01:35:24;102171.88;;;20.78
64916;BMP280;51427;-27.442;153.014;2022-07-21T01:37:52;102177.88;;;20.91
64916;BMP280;51427;-27.442;153.014;2022-07-21T01:40:19;102184.19;;;20.99
64916;BMP280;51427;-27.442;153.014;2022-07-21T01:43:15;102177.78;;;20.71
64916;BMP280;51427;-27.442;153.014;2022-07-21T01:45:42;102157.91;;;20.34
64916;BMP280;51427;-27.442;153.014;2022-07-21T01:48:09;102144.47;;;20.15
64916;BMP280;51427;-27.442;153.014;2022-07-21T01:50:37;102144.59;;;20.57
64916;BMP280;51427;-27.442;153.014;2022-07-21T01:53:04;102136.47;;;20.38
64916;BMP280;51427;-27.442;153.014;2022-07-21T01:55:31;102136.59;;;20.37
64916;BMP280;51427;-27.442;153.014;2022-07-21T01:58:00;102124.50;;;20.34
64916;BMP280;51427;-27.442;153.014;2022-07-21T02:00:28;102124.56;;;20.66
64916;BMP280;51427;-27.442;153.014;2022-07-21T02:02:55;102120.78;;;20.37
64916;BMP280;51427;-27.442;153.014;2022-07-21T02:05:22;102097.72;;;20.82
64916;BMP280;51427;-27.442;153.014;2022-07-21T02:07:50;102089.13;;;21.01
64916;BMP280;51427;-27.442;153.014;2022-07-21T02:10:17;102083.88;;;21.01
64916;BMP280;51427;-27.442;153.014;2022-07-21T02:12:44;102090.84;;;20.38
64916;BMP280;51427;-27.442;153.014;2022-07-21T02:15:12;102084.38;;;20.42
64916;BMP280;51427;-27.442;153.014;2022-07-21T02:17:39;102061.78;;;21.13
64916;BMP280;51427;-27.442;153.014;2022-07-21T02:20:06;102034.69;;;20.90
64916;BMP280;51427;-27.442;153.014;2022-07-21T02:22:34;102024.78;;;20.30
64916;BMP280;51427;-27.442;153.014;2022-07-21T02:25:01;102025.94;;;20.48
64916;BMP280;51427;-27.442;153.014;2022-07-21T02:27:28;102015.91;;;20.42
64916;BMP280;51427;-27.442;153.014;2022-07-21T02:29:55;102014.09;;;19.89
64916;BMP280;51427;-27.442;153.014;2022-07-21T02:32:23;102018.38;;;19.13
64916;BMP280;51427;-27.442;153.014;2022-07-21T02:34:50;102000.28;;;19.42
64916;BMP280;51427;-27.442;153.014;2022-07-21T02:37:17;102009.28;;;19.94
64916;BMP280;51427;-27.442;153.014;2022-07-21T02:39:44;102002.53;;;20.65
64916;BMP280;51427;-27.442;153.014;2022-07-21T02:42:11;102013.56;;;19.74
64916;BMP280;51427;-27.442;153.014;2022-07-21T02:44:39;102022.09;;;20.52
64916;BMP280;51427;-27.442;153.014;2022-07-21T02:47:06;102041.91;;;20.14
64916;BMP280;51427;-27.442;153.014;2022-07-21T02:49:33;102043.59;;;20.15
64916;BMP280;51427;-27.442;153.014;2022-07-21T02:52:00;102009.78;;;19.88
64916;BMP280;51427;-27.442;153.014;2022-07-21T02:54:27;101981.53;;;19.90
64916;BMP280;51427;-27.442;153.014;2022-07-21T02:56:55;101965.56;;;20.56
64916;BMP280;51427;-27.442;153.014;2022-07-21T02:59:22;101960.84;;;20.39
64916;BMP280;51427;-27.442;153.014;2022-07-21T03:01:49;101959.69;;;20.21
64916;BMP280;51427;-27.442;153.014;2022-07-21T03:04:16;101939.97;;;20.47
64916;BMP280;51427;-27.442;153.014;2022-07-21T03:06:44;101914.47;;;20.16
64916;BMP280;51427;-27.442;153.014;2022-07-21T03:09:11;101917.63;;;20.31
64916;BMP280;51427;-27.442;153.014;2022-07-21T03:11:38;101928.28;;;19.98
64916;BMP280;51427;-27.442;153.014;2022-07-21T03:14:05;101927.44;;;20.91
64916;BMP280;51427;-27.442;153.014;2022-07-21T03:16:32;101961.44;;;20.74
64916;BMP280;51427;-27.442;153.014;2022-07-21T03:19:00;101989.13;;;20.15
64916;BMP280;51427;-27.442;153.014;2022-07-21T03:21:27;101992.84;;;20.55
64916;BMP280;51427;-27.442;153.014;2022-07-21T03:23:54;101990.53;;;20.30
64916;BMP280;51427;-27.442;153.014;2022-07-21T03:26:21;101996.19;;;20.26
64916;BMP280;51427;-27.442;153.014;2022-07-21T03:28:48;101996.13;;;19.73
64916;BMP280;51427;-27.442;153.014;2022-07-21T03:31:16;101981.38;;;19.81
64916;BMP280;51427;-27.442;153.014;2022-07-21T03:33:43;101947.78;;;20.37
64916;BMP280;51427;-27.442;153.014;2022-07-21T03:36:10;101958.19;;;19.64
64916;BMP280;51427;-27.442;153.014;2022-07-21T03:38:37;101930.56;;;19.70
64916;BMP280;51427;-27.442;153.014;2022-07-21T03:41:04;101896.50;;;19.46
64916;BMP280;51427;-27.442;153.014;2022-07-21T03:43:32;101910.59;;;19.02
64916;BMP280;51427;-27.442;153.014;2022-07-21T03:45:59;101904.38;;;19.68
64916;BMP280;51427;-27.442;153.014;2022-07-21T03:48:26;101895.09;;;20.17
64916;BMP280;51427;-27.442;153.014;2022-07-21T03:50:53;101882.72;;;19.97
64916;BMP280;51427;-27.442;153.014;2022-07-21T03:53:21;101878.91;;;20.22
64916;BMP280;51427;-27.442;153.014;2022-07-21T03:55:48;101886.47;;;20.46
64916;BMP280;51427;-27.442;153.014;2022-07-21T03:58:15;101866.91;;;19.97
64916;BMP280;51427;-27.442;153.014;2022-07-21T04:00:44;101867.72;;;20.81
64916;BMP280;51427;-27.442;153.014;2022-07-21T04:03:12;101894.16;;;20.70
64916;BMP280;51427;-27.442;153.014;2022-07-21T04:05:41;101924.94;;;20.89
64916;BMP280;51427;-27.442;153.014;2022-07-21T04:08:09;101929.63;;;21.06
64916;BMP280;51427;-27.442;153.014;2022-07-21T04:10:39;101914.72;;;21.46
64916;BMP280;51427;-27.442;153.014;2022-07-21T04:13:12;101930.13;;;20.18
64916;BMP280;51427;-27.442;153.014;2022-07-21T04:15:39;101898.16;;;20.53
64916;BMP280;51427;-27.442;153.014;2022-07-21T04:18:07;101896.19;;;20.35
64916;BMP280;51427;-27.442;153.014;2022-07-21T04:20:34;101862.84;;;20.76
64916;BMP280;51427;-27.442;153.014;2022-07-21T04:23:02;101845.03;;;20.89
64916;BMP280;51427;-27.442;153.014;2022-07-21T04:25:29;101842.25;;;20.50
64916;BMP280;51427;-27.442;153.014;2022-07-21T04:27:59;101850.44;;;20.87
64916;BMP280;51427;-27.442;153.014;2022-07-21T04:30:27;101858.13;;;20.39
64916;BMP280;51427;-27.442;153.014;2022-07-21T04:32:55;101865.81;;;21.12
64916;BMP280;51427;-27.442;153.014;2022-07-21T04:35:23;101882.03;;;20.47
64916;BMP280;51427;-27.442;153.014;2022-07-21T04:37:51;101877.50;;;20.89
64916;BMP280;51427;-27.442;153.014;2022-07-21T04:40:19;101888.09;;;20.79
64916;BMP280;51427;-27.442;153.014;2022-07-21T04:42:47;101875.75;;;20.79
64916;BMP280;51427;-27.442;153.014;2022-07-21T04:45:15;101870.03;;;21.24
64916;BMP280;51427;-27.442;153.014;2022-07-21T04:47:46;101884.16;;;21.14
64916;BMP280;51427;-27.442;153.014;2022-07-21T04:50:14;101885.56;;;21.27
64916;BMP280;51427;-27.442;153.014;2022-07-21T04:52:42;101868.03;;;21.07
64916;BMP280;51427;-27.442;153.014;2022-07-21T04:55:11;101866.94;;;20.89
64916;BMP280;51427;-27.442;153.014;2022-07-21T04:57:44;101887.16;;;21.09
64916;BMP280;51427;-27.442;153.014;2022-07-21T05:00:15;101891.84;;;21.65
64916;BMP280;51427;-27.442;153.014;2022-07-21T05:02:43;101891.91;;;21.15
64916;BMP280;51427;-27.442;153.014;2022-07-21T05:05:12;101881.53;;;21.23
64916;BMP280;51427;-27.442;153.014;2022-07-21T05:07:40;101874.44;;;20.33
64916;BMP280;51427;-27.442;153.014;2022-07-21T05:10:09;101857.72;;;20.64
64916;BMP280;51427;-27.442;153.014;2022-07-21T05:12:37;101871.97;;;20.92
64916;BMP280;51427;-27.442;153.014;2022-07-21T05:15:07;101901.38;;;20.57
64916;BMP280;51427;-27.442;153.014;2022-07-21T05:17:36;101916.00;;;20.50
64916;BMP280;51427;-27.442;153.014;2022-07-21T05:20:04;101910.00;;;20.99
64916;BMP280;51427;-27.442;153.014;2022-07-21T05:22:32;101909.34;;;21.07
64916;BMP280;51427;-27.442;153.014;2022-07-21T05:25:00;101915.97;;;20.30
64916;BMP280;51427;-27.442;153.014;2022-07-21T05:27:27;101916.31;;;20.05
64916;BMP280;51427;-27.442;153.014;2022-07-21T05:29:55;101915.38;;;20.57
64916;BMP280;51427;-27.442;153.014;2022-07-21T05:32:23;101921.00;;;20.33
64916;BMP280;51427;-27.442;153.014;2022-07-21T05:34:50;101913.06;;;20.64
64916;BMP280;51427;-27.442;153.014;2022-07-21T05:37:18;101904.94;;;20.67
64916;BMP280;51427;-27.442;153.014;2022-07-21T05:39:45;101887.47;;;20.34
64916;BMP280;51427;-27.442;153.014;2022-07-21T05:42:13;101881.16;;;20.78
64916;BMP280;51427;-27.442;153.014;2022-07-21T05:44:41;101887.16;;;21.09
64916;BMP280;51427;-27.442;153.014;2022-07-21T05:47:09;101897.06;;;20.56
64916;BMP280;51427;-27.442;153.014;2022-07-21T05:49:36;101896.72;;;21.10
64916;BMP280;51427;-27.442;153.014;2022-07-21T05:52:04;101894.38;;;21.07
64916;BMP280;51427;-27.442;153.014;2022-07-21T05:54:32;101872.66;;;20.94
64916;BMP280;51427;-27.442;153.014;2022-07-21T05:57:00;101869.97;;;20.85
64916;BMP280;51427;-27.442;153.014;2022-07-21T05:59:29;101862.88;;;20.85
64916;BMP280;51427;-27.442;153.014;2022-07-21T06:01:56;101866.53;;;20.53
64916;BMP280;51427;-27.442;153.014;2022-07-21T06:04:24;101862.44;;;20.09
64916;BMP280;51427;-27.442;153.014;2022-07-21T06:06:52;101858.84;;;20.82
64916;BMP280;51427;-27.442;153.014;2022-07-21T06:09:20;101854.63;;;20.70
64916;BMP280;51427;-27.442;153.014;2022-07-21T06:11:47;101863.00;;;20.64
64916;BMP280;51427;-27.442;153.014;2022-07-21T06:14:15;101873.34;;;20.35
64916;BMP280;51427;-27.442;153.014;2022-07-21T06:16:43;101888.38;;;20.13
64916;BMP280;51427;-27.442;153.014;2022-07-21T06:19:10;101878.13;;;20.82
64916;BMP280;51427;-27.442;153.014;2022-07-21T06:21:38;101888.50;;;20.43
64916;BMP280;51427;-27.442;153.014;2022-07-21T06:24:08;101885.81;;;20.54
64916;BMP280;51427;-27.442;153.014;2022-07-21T06:26:36;101882.94;;;20.57
64916;BMP280;51427;-27.442;153.014;2022-07-21T06:29:05;101873.53;;;20.64
64916;BMP280;51427;-27.442;153.014;2022-07-21T06:31:33;101868.66;;;20.80
64916;BMP280;51427;-27.442;153.014;2022-07-21T06:34:01;101867.84;;;20.79
64916;BMP280;51427;-27.442;153.014;2022-07-21T06:36:29;101867.47;;;20.32
64916;BMP280;51427;-27.442;153.014;2022-07-21T06:38:57;101870.06;;;20.43
64916;BMP280;51427;-27.442;153.014;2022-07-21T06:41:25;101868.66;;;20.80
64916;BMP280;51427;-27.442;153.014;2022-07-21T06:43:52;101881.44;;;20.64
64916;BMP280;51427;-27.442;153.014;2022-07-21T06:46:20;101899.53;;;20.88
64916;BMP280;51427;-27.442;153.014;2022-07-21T06:48:47;101936.59;;;20.14
64916;BMP280;51427;-27.442;153.014;2022-07-21T06:51:15;101947.78;;;19.19
64916;BMP280;51427;-27.442;153.014;2022-07-21T06:53:43;101947.91;;;19.18
64916;BMP280;51427;-27.442;153.014;2022-07-21T06:56:10;101934.31;;;19.00
64916;BMP280;51427;-27.442;153.014;2022-07-21T06:58:38;101919.09;;;19.16
64916;BMP280;51427;-27.442;153.014;2022-07-21T07:01:06;101914.31;;;19.43
64916;BMP280;51427;-27.442;153.014;2022-07-21T07:03:34;101912.63;;;19.31
64916;BMP280;51427;-27.442;153.014;2022-07-21T07:06:01;101909.63;;;19.90
64916;BMP280;51427;-27.442;153.014;2022-07-21T07:08:29;101915.38;;;19.73
64916;BMP280;51427;-27.442;153.014;2022-07-21T07:10:57;101917.22;;;20.46
64916;BMP280;51427;-27.442;153.014;2022-07-21T07:13:25;101926.78;;;20.78
64916;BMP280;51427;-27.442;153.014;2022-07-21T07:15:52;101928.25;;;20.91
64916;BMP280;51427;-27.442;153.014;2022-07-21T07:18:20;101944.50;;;20.25
64916;BMP280;51427;-27.442;153.014;2022-07-21T07:20:49;101930.97;;;21.21
64916;BMP280;51427;-27.442;153.014;2022-07-21T07:23:17;101923.03;;;20.29
64916;BMP280;51427;-27.442;153.014;2022-07-21T07:25:45;101903.34;;;20.44
64916;BMP280;51427;-27.442;153.014;2022-07-21T07:28:12;101906.78;;;20.55
64916;BMP280;51427;-27.442;153.014;2022-07-21T07:30:40;101895.16;;;20.27
64916;BMP280;51427;-27.442;153.014;2022-07-21T07:33:08;101896.00;;;20.58
64916;BMP280;51427;-27.442;153.014;2022-07-21T07:35:35;101894.81;;;21.42
64916;BMP280;51427;-27.442;153.014;2022-07-21T07:38:03;101902.91;;;21.20
64916;BMP280;51427;-27.442;153.014;2022-07-21T07:40:30;101918.13;;;20.56
64916;BMP280;51427;-27.442;153.014;2022-07-21T07:42:58;101921.84;;;19.91
64916;BMP280;51427;-27.442;153.014;2022-07-21T07:45:26;101929.81;;;19.79
64916;BMP280;51427;-27.442;153.014;2022-07-21T07:47:54;101930.56;;;19.48
64916;BMP280;51427;-27.442;153.014;2022-07-21T07:50:22;101936.31;;;19.64
64916;BMP280;51427;-27.442;153.014;2022-07-21T07:52:49;101916.94;;;19.76
64916;BMP280;51427;-27.442;153.014;2022-07-21T07:55:17;101927.91;;;20.02
64916;BMP280;51427;-27.442;153.014;2022-07-21T07:57:45;101915.97;;;19.77
64916;BMP280;51427;-27.442;153.014;2022-07-21T08:00:15;101913.34;;;19.66
64916;BMP280;51427;-27.442;153.014;2022-07-21T08:02:44;101898.66;;;19.52
64916;BMP280;51427;-27.442;153.014;2022-07-21T08:05:12;101885.09;;;20.00
64916;BMP280;51427;-27.442;153.014;2022-07-21T08:07:40;101899.72;;;19.61
64916;BMP280;51427;-27.442;153.014;2022-07-21T08:10:10;101891.22;;;19.90
64916;BMP280;51427;-27.442;153.014;2022-07-21T08:12:39;101891.22;;;20.21
64916;BMP280;51427;-27.442;153.014;2022-07-21T08:15:08;101909.91;;;19.65
64916;BMP280;51427;-27.442;153.014;2022-07-21T08:17:36;101900.69;;;20.24
64916;BMP280;51427;-27.442;153.014;2022-07-21T08:20:04;101900.22;;;19.44
64916;BMP280;51427;-27.442;153.014;2022-07-21T08:22:33;101904.25;;;20.23
64916;BMP280;51427;-27.442;153.014;2022-07-21T08:25:00;101921.22;;;19.77
64916;BMP280;51427;-27.442;153.014;2022-07-21T08:27:28;101915.00;;;19.99
64916;BMP280;51427;-27.442;153.014;2022-07-21T08:29:55;101912.84;;;19.93
64916;BMP280;51427;-27.442;153.014;2022-07-21T08:32:24;101910.56;;;20.00
64916;BMP280;51427;-27.442;153.014;2022-07-21T08:34:51;101899.56;;;20.57
64916;BMP280;51427;-27.442;153.014;2022-07-21T08:37:22;101904.81;;;20.37
64916;BMP280;51427;-27.442;153.014;2022-07-21T08:39:50;101916.59;;;20.53
64916;BMP280;51427;-27.442;153.014;2022-07-21T08:42:17;101913.97;;;20.22
64916;BMP280;51427;-27.442;153.014;2022-07-21T08:44:45;101903.00;;;21.09
64916;BMP280;51427;-27.442;153.014;2022-07-21T08:47:12;101901.03;;;20.82
64916;BMP280;51427;-27.442;153.014;2022-07-21T08:49:41;101898.41;;;20.50
64916;BMP280;51427;-27.442;153.014;2022-07-21T08:52:09;101892.97;;;21.03
64916;BMP280;51427;-27.442;153.014;2022-07-21T08:54:36;101893.31;;;20.89
64916;BMP280;51427;-27.442;153.014;2022-07-21T08:57:04;101886.53;;;20.56
64916;BMP280;51427;-27.442;153.014;2022-07-21T08:59:32;101884.38;;;20.30
64916;BMP280;51427;-27.442;153.014;2022-07-21T09:01:59;101888.38;;;20.76
64916;BMP280;51427;-27.442;153.014;2022-07-21T09:04:33;101889.19;;;20.76
64916;BMP280;51427;-27.442;153.014;2022-07-21T09:07:06;101897.72;;;20.17
64916;BMP280;51427;-27.442;153.014;2022-07-21T09:09:35;101894.34;;;20.78
64916;BMP280;51427;-27.442;153.014;2022-07-21T09:12:04;101906.66;;;20.57
64916;BMP280;51427;-27.442;153.014;2022-07-21T09:14:35;101925.53;;;19.99
64916;BMP280;51427;-27.442;153.014;2022-07-21T09:17:04;101929.50;;;19.61
64916;BMP280;51427;-27.442;153.014;2022-07-21T09:19:35;101941.09;;;19.26
64916;BMP280;51427;-27.442;153.014;2022-07-21T09:22:06;101955.31;;;18.90
64916;BMP280;51427;-27.442;153.014;2022-07-21T09:24:36;101953.09;;;18.62
64916;BMP280;51427;-27.442;153.014;2022-07-21T09:29:48;101960.00;;;18.97
64916;BMP280;51427;-27.442;153.014;2022-07-21T09:32:33;101956.50;;;18.75
64916;BMP280;51427;-27.442;153.014;2022-07-21T09:35:05;101959.38;;;19.28
64916;BMP280;51427;-27.442;153.014;2022-07-21T09:37:33;101969.03;;;19.05
64916;BMP280;51427;-27.442;153.014;2022-07-21T09:40:07;101960.94;;;19.52
64916;BMP280;51427;-27.442;153.014;2022-07-21T09:42:41;101955.81;;;19.61
64916;BMP280;51427;-27.442;153.014;2022-07-21T09:45:12;101955.69;;;19.19
64916;BMP280;51427;-27.442;153.014;2022-07-21T09:47:41;101955.44;;;19.88
64916;BMP280;51427;-27.442;153.014;2022-07-21T09:50:11;101944.69;;;19.90
64916;BMP280;51427;-27.442;153.014;2022-07-21T09:52:44;101957.78;;;20.12
64916;BMP280;51427;-27.442;153.014;2022-07-21T09:55:14;101950.19;;;19.66
64916;BMP280;51427;-27.442;153.014;2022-07-21T09:57:44;101957.81;;;19.80
64916;BMP280;51427;-27.442;153.014;2022-07-21T10:00:14;101978.88;;;19.36
64916;BMP280;51427;-27.442;153.014;2022-07-21T10:02:44;101986.59;;;19.16
64916;BMP280;51427;-27.442;153.014;2022-07-21T10:05:18;101997.59;;;18.87
64916;BMP280;51427;-27.442;153.014;2022-07-21T10:07:48;101997.78;;;18.73
64916;BMP280;51427;-27.442;153.014;2022-07-21T10:10:17;101988.66;;;18.89
64916;BMP280;51427;-27.442;153.014;2022-07-21T10:12:46;101978.03;;;19.36
64916;BMP280;51427;-27.442;153.014;2022-07-21T10:15:15;101978.88;;;19.25
64916;BMP280;51427;-27.442;153.014;2022-07-21T10:17:44;101977.53;;;19.20
64916;BMP280;51427;-27.442;153.014;2022-07-21T10:20:32;101973.75;;;19.00
64916;BMP280;51427;-27.442;153.014;2022-07-21T10:23:40;101979.97;;;18.99
64916;BMP280;51427;-27.442;153.014;2022-07-21T10:26:09;101981.94;;;18.85
64916;BMP280;51427;-27.442;153.014;2022-07-21T10:28:37;101960.94;;;19.19
64916;BMP280;51427;-27.442;153.014;2022-07-21T10:31:23;101961.44;;;18.90
64916;BMP280;51427;-27.442;153.014;2022-07-21T10:33:51;101950.03;;;18.79
64916;BMP280;51427;-27.442;153.014;2022-07-21T10:41:46;101943.00;;;18.79
64916;BMP280;51427;-27.442;153.014;2022-07-21T10:49:46;101937.50;;;19.16
64916;BMP280;51427;-27.442;153.014;2022-07-21T10:55:18;101969.31;;;19.46
64916;BMP280;51427;-27.442;153.014;2022-07-21T11:00:59;101960.25;;;19.39
64916;BMP280;51427;-27.442;153.014;2022-07-21T11:03:40;101954.84;;;18.85
64916;BMP280;51427;-27.442;153.014;2022-07-21T11:09:05;101987.84;;;18.89
64916;BMP280;51427;-27.442;153.014;2022-07-21T11:11:38;101972.91;;;19.00
64916;BMP280;51427;-27.442;153.014;2022-07-21T11:14:07;101967.34;;;19.04
64916;BMP280;51427;-27.442;153.014;2022-07-21T11:19:31;101956.38;;;18.53
64916;BMP280;51427;-27.442;153.014;2022-07-21T11:22:04;101949.25;;;18.89
64916;BMP280;51427;-27.442;153.014;2022-07-21T11:24:32;101942.19;;;18.90
64916;BMP280;51427;-27.442;153.014;2022-07-21T11:27:05;101945.50;;;18.81
64916;BMP280;51427;-27.442;153.014;2022-07-21T11:29:35;101947.16;;;19.05
64916;BMP280;51427;-27.442;153.014;2022-07-21T11:32:04;101958.91;;;18.78
64916;BMP280;51427;-27.442;153.014;2022-07-21T11:37:17;101956.59;;;19.07
64916;BMP280;51427;-27.442;153.014;2022-07-21T11:39:45;101963.22;;;18.90
64916;BMP280;51427;-27.442;153.014;2022-07-21T11:42:14;101963.16;;;18.68
64916;BMP280;51427;-27.442;153.014;2022-07-21T11:44:43;101947.09;;;19.39
64916;BMP280;51427;-27.442;153.014;2022-07-21T11:47:13;101927.22;;;19.24
64916;BMP280;51427;-27.442;153.014;2022-07-21T11:49:44;101913.25;;;18.68
64916;BMP280;51427;-27.442;153.014;2022-07-21T11:52:14;101906.19;;;19.13
64916;BMP280;51427;-27.442;153.014;2022-07-21T11:54:54;101898.31;;;19.13
64916;BMP280;51427;-27.442;153.014;2022-07-21T11:57:24;101899.78;;;18.83
64916;BMP280;51427;-27.442;153.014;2022-07-21T11:59:53;101907.22;;;18.44
64916;BMP280;51427;-27.442;153.014;2022-07-21T12:02:23;101905.81;;;18.62
64916;BMP280;51427;-27.442;153.014;2022-07-21T12:04:56;101888.94;;;18.88
64916;BMP280;51427;-27.442;153.014;2022-07-21T12:10:11;101866.78;;;19.13
64916;BMP280;51427;-27.442;153.014;2022-07-21T12:12:44;101861.94;;;18.86
64916;BMP280;51427;-27.442;153.014;2022-07-21T12:17:54;101860.34;;;18.72
64916;BMP280;51427;-27.442;153.014;2022-07-21T12:25:49;101900.16;;;18.90
64916;BMP280;51427;-27.442;153.014;2022-07-21T12:28:17;101899.13;;;19.25
64916;BMP280;51427;-27.442;153.014;2022-07-21T12:30:50;101889.34;;;19.38
64916;BMP280;51427;-27.442;153.014;2022-07-21T12:33:20;101893.88;;;19.03
64916;BMP280;51427;-27.442;153.014;2022-07-21T12:36:06;101881.72;;;19.35
64916;BMP280;51427;-27.442;153.014;2022-07-21T12:41:07;101856.59;;;19.20
64916;BMP280;51427;-27.442;153.014;2022-07-21T12:43:34;101853.16;;;19.08
64916;BMP280;51427;-27.442;153.014;2022-07-21T12:46:17;101864.13;;;19.24
64916;BMP280;51427;-27.442;153.014;2022-07-21T12:48:46;101877.16;;;19.04
64916;BMP280;51427;-27.442;153.014;2022-07-21T12:51:24;101860.28;;;19.50
64916;BMP280;51427;-27.442;153.014;2022-07-21T12:53:54;101844.66;;;19.38
64916;BMP280;51427;-27.442;153.014;2022-07-21T12:56:24;101843.31;;;19.43
64916;BMP280;51427;-27.442;153.014;2022-07-21T12:58:54;101842.97;;;19.26
64916;BMP280;51427;-27.442;153.014;2022-07-21T13:01:23;101857.19;;;19.34
64916;BMP280;51427;-27.442;153.014;2022-07-21T13:03:51;101859.66;;;18.92
64916;BMP280;51427;-27.442;153.014;2022-07-21T13:06:19;101857.56;;;19.19
64916;BMP280;51427;-27.442;153.014;2022-07-21T13:08:47;101871.47;;;18.97
64916;BMP280;51427;-27.442;153.014;2022-07-21T13:11:17;101867.72;;;19.12
64916;BMP280;51427;-27.442;153.014;2022-07-21T13:13:46;101864.91;;;18.81
64916;BMP280;51427;-27.442;153.014;2022-07-21T13:16:15;101839.19;;;19.72
64916;BMP280;51427;-27.442;153.014;2022-07-21T13:18:43;101831.88;;;19.86
64916;BMP280;51427;-27.442;153.014;2022-07-21T13:21:11;101848.19;;;19.58
64916;BMP280;51427;-27.442;153.014;2022-07-21T13:23:39;101857.19;;;19.12
64916;BMP280;51427;-27.442;153.014;2022-07-21T13:26:07;101856.97;;;19.04
64916;BMP280;51427;-27.442;153.014;2022-07-21T13:28:35;101862.38;;;18.58
64916;BMP280;51427;-27.442;153.014;2022-07-21T13:31:05;101866.00;;;18.90
64916;BMP280;51427;-27.442;153.014;2022-07-21T13:33:34;101859.19;;;18.87
64916;BMP280;51427;-27.442;153.014;2022-07-21T13:36:03;101861.13;;;19.40
64916;BMP280;51427;-27.442;153.014;2022-07-21T13:38:31;101849.63;;;18.97
64916;BMP280;51427;-27.442;153.014;2022-07-21T13:40:59;101846.19;;;19.29
64916;BMP280;51427;-27.442;153.014;2022-07-21T13:43:26;101831.97;;;19.85
64916;BMP280;51427;-27.442;153.014;2022-07-21T13:45:54;101842.41;;;19.22
64916;BMP280;51427;-27.442;153.014;2022-07-21T13:48:22;101830.69;;;19.15
64916;BMP280;51427;-27.442;153.014;2022-07-21T13:50:49;101805.47;;;19.77
64916;BMP280;51427;-27.442;153.014;2022-07-21T13:53:17;101809.09;;;19.54
64916;BMP280;51427;-27.442;153.014;2022-07-21T13:55:45;101808.63;;;19.60
64916;BMP280;51427;-27.442;153.014;2022-07-21T13:58:12;101807.94;;;19.47
64916;BMP280;51427;-27.442;153.014;2022-07-21T14:00:40;101815.84;;;19.36
64916;BMP280;51427;-27.442;153.014;2022-07-21T14:03:07;101810.56;;;19.47
64916;BMP280;51427;-27.442;153.014;2022-07-21T14:05:35;101804.28;;;20.32
64916;BMP280;51427;-27.442;153.014;2022-07-21T14:08:03;101809.47;;;19.60
64916;BMP280;51427;-27.442;153.014;2022-07-21T14:10:31;101799.06;;;19.48
64916;BMP280;51427;-27.442;153.014;2022-07-21T14:12:59;101794.56;;;19.81